createdAt,value
2018-04-17T00:00:09.199Z,7.40
2018-04-17T00:02:35.701Z,7.40
2018-04-17T00:05:02.173Z,7.40
2018-04-17T00:07:28.645Z,7.40
2018-04-17T00:09:55.137Z,7.30
2018-04-17T00:12:21.571Z,7.30
2018-04-17T00:14:48.047Z,7.30
2018-04-17T00:17:14.541Z,7.30
2018-04-17T00:19:40.997Z,7.30
2018-04-17T00:22:07.479Z,7.30
2018-04-17T00:24:34.739Z,7.20
2018-04-17T00:27:01.154Z,7.20
2018-04-17T00:29:28.366Z,7.10
2018-04-17T00:31:54.782Z,7.10
2018-04-17T00:34:21.237Z,7.10
2018-04-17T00:36:47.700Z,7.00
2018-04-17T00:39:14.886Z,7.00
2018-04-17T00:41:41.370Z,7.00
2018-04-17T00:44:07.804Z,7.10
2018-04-17T00:46:34.295Z,7.10
2018-04-17T00:49:00.721Z,7.10
2018-04-17T00:51:27.220Z,7.00
2018-04-17T00:53:58.661Z,7.00
2018-04-17T00:56:25.131Z,7.00
2018-04-17T00:58:52.354Z,7.00
2018-04-17T01:01:18.934Z,6.90
2018-04-17T01:03:45.462Z,6.90
2018-04-17T01:06:11.909Z,6.90
2018-04-17T01:08:38.378Z,6.90
2018-04-17T01:11:04.831Z,6.90
2018-04-17T01:13:31.325Z,6.80
2018-04-17T01:15:57.769Z,6.80
2018-04-17T01:18:24.368Z,6.80
2018-04-17T01:20:50.823Z,6.80
2018-04-17T01:23:17.254Z,6.70
2018-04-17T01:25:43.716Z,6.70
2018-04-17T01:28:10.220Z,6.70
2018-04-17T01:30:36.698Z,6.70
2018-04-17T01:33:03.272Z,6.70
2018-04-17T01:35:29.742Z,6.70
2018-04-17T01:37:56.275Z,6.80
2018-04-17T01:40:22.759Z,6.70
2018-04-17T01:42:49.201Z,6.70
2018-04-17T01:45:16.389Z,6.50
2018-04-17T01:47:42.856Z,6.50
2018-04-17T01:50:10.087Z,6.60
2018-04-17T01:52:36.550Z,6.60
2018-04-17T01:55:03.010Z,6.80
2018-04-17T01:57:30.210Z,6.60
2018-04-17T01:59:56.682Z,6.60
2018-04-17T02:02:23.896Z,6.60
2018-04-17T02:04:50.409Z,6.60
2018-04-17T02:07:16.892Z,6.60
2018-04-17T02:09:43.343Z,6.60
2018-04-17T02:12:10.550Z,6.40
2018-04-17T02:14:37.097Z,6.40
2018-04-17T02:17:03.574Z,6.40
2018-04-17T02:19:30.972Z,6.50
2018-04-17T02:21:57.438Z,6.50
2018-04-17T02:24:24.617Z,6.50
2018-04-17T02:26:51.122Z,6.60
2018-04-17T02:29:17.594Z,6.50
2018-04-17T02:31:44.030Z,6.50
2018-04-17T02:34:10.537Z,6.50
2018-04-17T02:36:38.375Z,6.40
2018-04-17T02:39:04.914Z,6.40
2018-04-17T02:41:31.355Z,6.40
2018-04-17T02:43:57.812Z,6.40
2018-04-17T02:46:25.057Z,6.40
2018-04-17T02:48:51.547Z,6.40
2018-04-17T02:51:18.059Z,6.40
2018-04-17T02:53:44.534Z,6.40
2018-04-17T02:56:10.986Z,6.40
2018-04-17T02:58:38.444Z,6.40
2018-04-17T03:01:04.988Z,6.40
2018-04-17T03:03:31.437Z,6.40
2018-04-17T03:05:58.637Z,6.50
2018-04-17T03:08:25.153Z,6.50
2018-04-17T03:10:51.640Z,6.50
2018-04-17T03:13:18.075Z,6.50
2018-04-17T03:15:46.015Z,6.70
2018-04-17T03:18:12.479Z,6.70
2018-04-17T03:20:38.942Z,6.70
2018-04-17T03:23:05.473Z,6.90
2018-04-17T03:25:31.915Z,7.00
2018-04-17T03:27:58.371Z,7.10
2018-04-17T03:30:24.812Z,7.20
2018-04-17T03:32:51.347Z,7.30
2018-04-17T03:35:17.803Z,7.50
2018-04-17T03:37:44.322Z,7.60
2018-04-17T03:40:10.825Z,7.70
2018-04-17T03:42:37.303Z,7.80
2018-04-17T03:45:03.774Z,7.90
2018-04-17T03:47:30.961Z,7.90
2018-04-17T03:49:57.398Z,7.90
2018-04-17T03:52:23.841Z,7.80
2018-04-17T03:54:50.287Z,7.80
2018-04-17T03:57:16.739Z,7.80
2018-04-17T03:59:43.209Z,7.80
2018-04-17T04:02:09.673Z,7.80
2018-04-17T04:04:36.183Z,7.80
2018-04-17T04:07:02.665Z,7.80
2018-04-17T04:09:29.156Z,7.70
2018-04-17T04:11:55.610Z,7.60
2018-04-17T04:14:22.071Z,7.50
2018-04-17T04:17:09.452Z,7.50
2018-04-17T04:19:47.995Z,7.40
2018-04-17T04:22:26.607Z,7.40
2018-04-17T04:25:03.122Z,7.40
2018-04-17T04:27:29.713Z,7.30
2018-04-17T04:29:56.917Z,7.20
2018-04-17T04:32:24.115Z,7.20
2018-04-17T04:34:50.610Z,7.20
2018-04-17T04:37:17.791Z,7.10
2018-04-17T04:39:44.212Z,7.10
2018-04-17T04:42:10.655Z,7.10
2018-04-17T04:44:37.091Z,7.00
2018-04-17T04:47:03.532Z,7.00
2018-04-17T04:49:30.753Z,7.00
2018-04-17T04:51:57.191Z,7.00
2018-04-17T04:54:23.616Z,6.90
2018-04-17T04:56:50.799Z,6.90
2018-04-17T04:59:17.237Z,6.90
2018-04-17T05:01:43.687Z,6.90
2018-04-17T05:04:10.108Z,7.00
2018-04-17T05:06:36.525Z,7.20
2018-04-17T05:09:03.046Z,7.30
2018-04-17T05:11:29.470Z,7.30
2018-04-17T05:13:56.684Z,7.40
2018-04-17T05:16:23.140Z,7.40
2018-04-17T05:18:49.562Z,7.30
2018-04-17T05:21:16.004Z,7.30
2018-04-17T05:23:42.467Z,7.20
2018-04-17T05:26:08.897Z,7.20
2018-04-17T05:28:35.324Z,7.20
2018-04-17T05:31:01.777Z,7.30
2018-04-17T05:33:28.199Z,7.40
2018-04-17T05:35:54.610Z,7.60
2018-04-17T05:38:21.018Z,7.70
2018-04-17T05:40:47.439Z,7.70
2018-04-17T05:43:13.859Z,7.70
2018-04-17T05:45:40.279Z,7.80
2018-04-17T05:48:07.467Z,7.80
2018-04-17T05:50:33.896Z,7.80
2018-04-17T05:53:00.365Z,7.90
2018-04-17T05:56:30.825Z,7.90
2018-04-17T05:58:58.031Z,8.60
2018-04-17T06:01:24.493Z,8.50
2018-04-17T06:03:50.909Z,8.80
2018-04-17T06:06:17.335Z,9.00
2018-04-17T06:08:43.753Z,9.10
2018-04-17T06:11:10.172Z,9.20
2018-04-17T06:13:36.593Z,9.30
2018-04-17T06:16:02.993Z,9.40
2018-04-17T06:18:29.405Z,9.40
2018-04-17T06:20:55.863Z,9.50
2018-04-17T06:23:22.336Z,9.60
2018-04-17T06:25:48.755Z,9.70
2018-04-17T06:28:15.169Z,9.80
2018-04-17T06:30:41.580Z,9.90
2018-04-17T06:33:07.984Z,9.90
2018-04-17T06:35:34.459Z,10.00
2018-04-17T06:38:00.879Z,10.20
2018-04-17T06:40:27.307Z,10.20
2018-04-17T06:42:53.982Z,10.30
2018-04-17T06:45:20.449Z,10.30
2018-04-17T06:47:46.900Z,10.40
2018-04-17T06:50:20.383Z,10.50
2018-04-17T06:52:46.844Z,10.60
2018-04-17T06:55:13.281Z,10.60
2018-04-17T06:57:39.696Z,10.70
2018-04-17T07:00:06.164Z,10.80
2018-04-17T07:02:32.629Z,10.90
2018-04-17T07:04:59.817Z,11.20
2018-04-17T07:07:26.240Z,11.20
2018-04-17T07:09:52.663Z,11.20
2018-04-17T07:12:19.103Z,11.30
2018-04-17T07:14:45.539Z,11.40
2018-04-17T07:17:11.957Z,11.40
2018-04-17T07:19:38.374Z,11.50
2018-04-17T07:22:04.821Z,11.60
2018-04-17T07:24:31.219Z,11.70
2018-04-17T07:26:57.647Z,11.80
2018-04-17T07:29:24.069Z,11.80
2018-04-17T07:31:50.534Z,11.90
2018-04-17T07:34:16.981Z,12.00
2018-04-17T07:36:43.409Z,12.20
2018-04-17T07:39:10.563Z,12.40
2018-04-17T07:41:37.703Z,12.50
2018-04-17T07:44:04.899Z,12.60
2018-04-17T07:46:31.355Z,12.60
2018-04-17T07:49:03.794Z,12.80
2018-04-17T07:51:30.235Z,12.90
2018-04-17T07:53:56.692Z,13.10
2018-04-17T07:56:23.110Z,13.40
2018-04-17T07:58:49.532Z,13.50
2018-04-17T08:01:15.965Z,13.70
2018-04-17T08:03:42.389Z,13.90
2018-04-17T08:06:08.768Z,14.00
2018-04-17T08:08:35.117Z,14.10
2018-04-17T08:11:01.506Z,14.20
2018-04-17T08:13:27.881Z,14.20
2018-04-17T08:15:54.981Z,14.30
2018-04-17T08:18:21.349Z,14.30
2018-04-17T08:20:47.721Z,14.40
2018-04-17T08:23:14.059Z,14.50
2018-04-17T08:25:40.424Z,14.60
2018-04-17T08:28:06.775Z,14.80
2018-04-17T08:30:33.118Z,14.80
2018-04-17T08:32:59.631Z,14.90
2018-04-17T08:35:25.986Z,14.90
2018-04-17T08:37:52.429Z,14.90
2018-04-17T08:40:18.778Z,15.10
2018-04-17T08:42:45.209Z,15.20
2018-04-17T08:45:14.472Z,15.20
2018-04-17T08:47:40.836Z,15.30
2018-04-17T08:50:07.215Z,15.40
2018-04-17T08:52:33.570Z,15.30
2018-04-17T08:54:59.908Z,15.40
2018-04-17T08:57:26.271Z,15.40
2018-04-17T08:59:53.375Z,15.50
2018-04-17T09:02:19.743Z,15.50
2018-04-17T09:04:46.839Z,15.50
2018-04-17T09:07:13.172Z,15.50
2018-04-17T09:09:40.519Z,15.60
2018-04-17T09:12:06.869Z,15.60
2018-04-17T09:14:33.226Z,15.70
2018-04-17T09:16:59.581Z,15.80
2018-04-17T09:19:25.924Z,15.90
2018-04-17T09:21:52.283Z,16.00
2018-04-17T09:24:18.676Z,16.10
2018-04-17T09:26:45.789Z,16.20
2018-04-17T09:29:12.137Z,16.20
2018-04-17T09:31:39.235Z,16.30
2018-04-17T09:34:05.791Z,16.30
2018-04-17T09:36:32.135Z,16.40
2018-04-17T09:38:58.477Z,16.50
2018-04-17T09:41:24.833Z,16.50
2018-04-17T09:43:51.203Z,16.60
2018-04-17T09:46:17.556Z,16.70
2018-04-17T09:48:43.949Z,16.80
2018-04-17T09:51:10.329Z,16.80
2018-04-17T09:53:36.693Z,16.80
2018-04-17T09:56:03.828Z,16.80
2018-04-17T09:58:30.181Z,16.80
2018-04-17T10:00:58.095Z,16.80
2018-04-17T10:03:24.451Z,16.80
2018-04-17T10:05:50.823Z,16.80
2018-04-17T10:08:17.183Z,16.90
2018-04-17T10:10:43.531Z,17.00
2018-04-17T10:13:16.930Z,17.10
2018-04-17T10:15:43.275Z,17.20
2018-04-17T10:18:10.359Z,17.40
2018-04-17T10:20:36.712Z,17.40
2018-04-17T10:23:03.052Z,17.50
2018-04-17T10:25:29.409Z,17.40
2018-04-17T10:27:55.747Z,17.60
2018-04-17T10:30:22.146Z,17.70
2018-04-17T10:32:48.496Z,17.70
2018-04-17T10:35:14.867Z,17.60
2018-04-17T10:37:41.221Z,17.70
2018-04-17T10:40:07.583Z,17.80
2018-04-17T10:42:33.943Z,17.80
2018-04-17T10:45:00.286Z,17.90
2018-04-17T10:47:26.627Z,18.00
2018-04-17T10:49:53.707Z,18.10
2018-04-17T10:52:20.056Z,18.10
2018-04-17T10:54:46.435Z,18.10
2018-04-17T10:57:27.635Z,18.10
2018-04-17T10:59:53.995Z,18.20
2018-04-17T11:02:20.358Z,18.20
2018-04-17T11:04:53.754Z,18.20
2018-04-17T11:07:20.846Z,18.50
2018-04-17T11:09:47.200Z,18.40
2018-04-17T11:12:13.540Z,18.50
2018-04-17T11:14:39.915Z,18.60
2018-04-17T11:17:07.035Z,18.60
2018-04-17T11:19:33.455Z,18.60
2018-04-17T11:21:59.835Z,18.70
2018-04-17T11:24:26.923Z,18.80
2018-04-17T11:26:53.298Z,18.80
2018-04-17T11:29:19.658Z,19.00
2018-04-17T11:31:46.740Z,19.10
2018-04-17T11:34:13.142Z,19.10
2018-04-17T11:36:39.522Z,19.10
2018-04-17T11:39:06.691Z,19.10
2018-04-17T11:41:33.054Z,19.20
2018-04-17T11:43:59.406Z,19.20
2018-04-17T11:46:25.767Z,19.30
2018-04-17T11:48:52.127Z,19.30
2018-04-17T11:51:18.500Z,19.40
2018-04-17T11:53:44.879Z,19.50
2018-04-17T11:56:11.249Z,19.50
2018-04-17T11:58:38.340Z,19.60
2018-04-17T12:01:04.732Z,19.50
2018-04-17T12:03:31.154Z,19.60
2018-04-17T12:05:57.608Z,19.70
2018-04-17T12:08:24.056Z,19.80
2018-04-17T12:10:50.476Z,20.00
2018-04-17T12:13:16.916Z,20.10
2018-04-17T12:15:43.295Z,20.10
2018-04-17T12:18:09.692Z,20.10
2018-04-17T12:20:36.047Z,20.20
2018-04-17T12:23:02.428Z,20.20
2018-04-17T12:25:28.804Z,20.20
2018-04-17T12:27:55.255Z,20.30
2018-04-17T12:30:21.627Z,20.40
2018-04-17T12:32:48.020Z,20.40
2018-04-17T12:35:14.600Z,20.50
2018-04-17T12:37:40.968Z,20.50
2018-04-17T12:40:07.393Z,20.50
2018-04-17T12:42:33.776Z,20.60
2018-04-17T12:45:00.166Z,20.60
2018-04-17T12:47:26.574Z,20.60
2018-04-17T12:49:52.979Z,20.50
2018-04-17T12:52:19.359Z,20.60
2018-04-17T12:54:45.739Z,20.80
2018-04-17T12:57:12.882Z,20.90
2018-04-17T12:59:39.278Z,20.90
2018-04-17T13:02:05.686Z,21.00
2018-04-17T13:04:32.066Z,21.00
2018-04-17T13:06:58.436Z,21.00
2018-04-17T13:09:24.783Z,21.00
2018-04-17T13:11:51.140Z,21.10
2018-04-17T13:14:17.505Z,21.10
2018-04-17T13:16:43.867Z,21.10
2018-04-17T13:19:10.947Z,21.20
2018-04-17T13:21:37.304Z,21.20
2018-04-17T13:24:03.704Z,21.30
2018-04-17T13:26:30.127Z,21.30
2018-04-17T13:28:56.485Z,21.50
2018-04-17T13:31:22.840Z,21.50
2018-04-17T13:33:49.949Z,21.50
2018-04-17T13:36:16.296Z,21.40
2018-04-17T13:38:42.652Z,21.40
2018-04-17T13:41:09.001Z,21.40
2018-04-17T13:43:36.141Z,21.60
2018-04-17T13:46:02.538Z,21.50
2018-04-17T13:48:30.221Z,21.70
2018-04-17T13:50:56.595Z,21.70
2018-04-17T13:53:23.693Z,21.70
2018-04-17T13:55:50.064Z,21.70
2018-04-17T13:58:17.180Z,21.70
2018-04-17T14:00:43.517Z,21.70
2018-04-17T14:03:09.854Z,21.80
2018-04-17T14:05:36.208Z,21.80
2018-04-17T14:08:03.300Z,21.80
2018-04-17T14:10:29.669Z,21.80
2018-04-17T14:12:56.022Z,21.90
2018-04-17T14:15:23.137Z,22.10
2018-04-17T14:17:49.495Z,22.10
2018-04-17T14:20:16.599Z,22.20
2018-04-17T14:22:42.952Z,22.20
2018-04-17T14:25:09.315Z,22.30
2018-04-17T14:27:36.410Z,22.50
2018-04-17T14:30:02.825Z,22.40
2018-04-17T14:32:29.204Z,22.40
2018-04-17T14:34:55.577Z,22.40
2018-04-17T14:37:21.940Z,22.40
2018-04-17T14:39:48.321Z,22.50
2018-04-17T14:42:15.448Z,22.70
2018-04-17T14:44:41.804Z,22.60
2018-04-17T14:47:08.912Z,22.90
2018-04-17T14:49:35.262Z,22.90
2018-04-17T14:52:01.596Z,23.10
2018-04-17T14:54:28.030Z,23.50
2018-04-17T14:56:54.364Z,23.90
2018-04-17T14:59:20.711Z,24.90
2018-04-17T15:01:47.074Z,26.00
2018-04-17T15:04:13.427Z,26.80
2018-04-17T15:06:39.778Z,27.20
2018-04-17T15:09:06.198Z,28.00
2018-04-17T15:11:32.546Z,28.50
2018-04-17T15:13:58.905Z,28.60
2018-04-17T15:16:25.255Z,28.80
2018-04-17T15:18:51.614Z,29.30
2018-04-17T15:21:17.960Z,29.40
2018-04-17T15:23:44.328Z,29.80
2018-04-17T15:26:11.469Z,30.10
2018-04-17T15:28:37.920Z,30.00
2018-04-17T15:31:04.294Z,30.50
2018-04-17T15:33:30.642Z,30.60
2018-04-17T15:35:57.007Z,30.40
2018-04-17T15:38:23.367Z,30.50
2018-04-17T15:40:49.722Z,31.00
2018-04-17T15:43:16.107Z,31.40
2018-04-17T15:45:42.458Z,31.80
2018-04-17T15:48:08.816Z,32.00
2018-04-17T15:50:35.172Z,31.70
2018-04-17T15:53:01.519Z,31.40
2018-04-17T15:55:28.659Z,32.40
2018-04-17T15:57:56.134Z,32.40
2018-04-17T16:00:22.494Z,31.90
2018-04-17T16:02:48.846Z,31.40
2018-04-17T16:05:15.204Z,31.20
2018-04-17T16:07:42.747Z,31.10
2018-04-17T16:10:09.170Z,31.30
2018-04-17T16:12:35.505Z,31.20
2018-04-17T16:15:01.851Z,31.40
2018-04-17T16:17:28.221Z,31.80
2018-04-17T16:19:56.144Z,32.50
2018-04-17T16:22:22.535Z,32.50
2018-04-17T16:24:48.901Z,32.50
2018-04-17T16:27:15.269Z,32.40
2018-04-17T16:29:41.669Z,32.40
2018-04-17T16:32:08.047Z,32.50
2018-04-17T16:34:34.406Z,32.40
2018-04-17T16:37:00.815Z,32.70
2018-04-17T16:39:27.933Z,32.90
2018-04-17T16:41:54.307Z,32.90
2018-04-17T16:44:21.443Z,31.40
2018-04-17T16:46:47.795Z,31.30
2018-04-17T16:49:14.909Z,30.90
2018-04-17T16:51:41.250Z,30.90
2018-04-17T16:54:07.583Z,31.20
2018-04-17T16:56:33.986Z,31.50
2018-04-17T16:59:00.360Z,32.10
2018-04-17T17:01:27.473Z,32.50
2018-04-17T17:03:53.855Z,32.50
2018-04-17T17:06:20.952Z,31.70
2018-04-17T17:08:47.322Z,31.70
2018-04-17T17:11:14.443Z,32.50
2018-04-17T17:13:40.793Z,32.50
2018-04-17T17:16:07.164Z,32.90
2018-04-17T17:18:33.511Z,33.20
2018-04-17T17:20:59.874Z,33.10
2018-04-17T17:23:26.240Z,32.30
2018-04-17T17:25:52.589Z,30.70
2018-04-17T17:28:18.942Z,28.40
2018-04-17T17:30:45.310Z,27.20
2018-04-17T17:33:11.717Z,26.20
2018-04-17T17:35:38.111Z,25.60
2018-04-17T17:38:04.460Z,25.00
2018-04-17T17:40:30.841Z,24.50
2018-04-17T17:42:57.212Z,24.20
2018-04-17T17:45:23.581Z,23.90
2018-04-17T17:47:49.977Z,23.70
2018-04-17T17:50:16.372Z,23.50
2018-04-17T17:52:42.798Z,23.20
2018-04-17T17:55:09.156Z,23.10
2018-04-17T17:57:36.283Z,22.90
2018-04-17T18:00:02.685Z,22.90
2018-04-17T18:02:29.026Z,22.80
2018-04-17T18:04:55.424Z,22.60
2018-04-17T18:07:22.523Z,22.20
2018-04-17T18:09:48.888Z,22.20
2018-04-17T18:12:15.264Z,22.10
2018-04-17T18:14:41.620Z,21.90
2018-04-17T18:17:07.986Z,21.80
2018-04-17T18:19:34.378Z,21.60
2018-04-17T18:22:00.735Z,21.40
2018-04-17T18:24:27.827Z,20.90
2018-04-17T18:26:54.206Z,20.80
2018-04-17T18:29:20.623Z,20.70
2018-04-17T18:31:47.008Z,20.70
2018-04-17T18:34:13.397Z,20.50
2018-04-17T18:36:39.842Z,20.20
2018-04-17T18:39:06.314Z,19.90
2018-04-17T18:41:32.761Z,19.70
2018-04-17T18:43:59.186Z,19.40
2018-04-17T18:46:25.644Z,19.40
2018-04-17T18:48:52.170Z,19.30
2018-04-17T18:51:18.593Z,19.40
2018-04-17T18:53:44.989Z,19.20
2018-04-17T18:56:12.203Z,19.00
2018-04-17T18:58:38.629Z,18.90
2018-04-17T19:01:05.146Z,18.40
2018-04-17T19:03:31.627Z,18.40
2018-04-17T19:05:58.058Z,18.30
2018-04-17T19:08:24.501Z,18.20
2018-04-17T19:10:51.735Z,17.90
2018-04-17T19:13:18.951Z,17.80
2018-04-17T19:15:45.448Z,17.80
2018-04-17T19:18:11.944Z,17.70
2018-04-17T19:20:38.368Z,17.60
2018-04-17T19:23:04.786Z,17.50
2018-04-17T19:25:31.320Z,17.60
2018-04-17T19:27:57.703Z,17.30
2018-04-17T19:30:24.118Z,17.40
2018-04-17T19:32:50.540Z,17.20
2018-04-17T19:35:16.941Z,17.20
2018-04-17T19:37:44.095Z,17.00
2018-04-17T19:40:10.487Z,17.00
2018-04-17T19:42:36.915Z,17.00
2018-04-17T19:45:03.329Z,16.90
2018-04-17T19:47:29.683Z,16.90
2018-04-17T19:49:56.083Z,16.80
2018-04-17T19:52:22.487Z,16.80
2018-04-17T19:54:48.880Z,16.70
2018-04-17T19:57:15.275Z,16.50
2018-04-17T19:59:41.670Z,16.60
2018-04-17T20:02:09.648Z,16.20
2018-04-17T20:04:36.033Z,16.20
2018-04-17T20:07:02.451Z,16.00
2018-04-17T20:09:28.864Z,15.90
2018-04-17T20:11:55.271Z,15.90
2018-04-17T20:14:22.433Z,15.70
2018-04-17T20:16:48.839Z,15.70
2018-04-17T20:19:16.715Z,15.70
2018-04-17T20:21:43.823Z,15.60
2018-04-17T20:24:10.237Z,15.60
2018-04-17T20:26:36.661Z,15.60
2018-04-17T20:29:03.066Z,15.60
2018-04-17T20:31:30.200Z,15.60
2018-04-17T20:33:56.567Z,15.50
2018-04-17T20:36:23.683Z,15.30
2018-04-17T20:38:50.055Z,15.30
2018-04-17T20:41:16.425Z,15.20
2018-04-17T20:43:42.878Z,15.20
2018-04-17T20:46:09.300Z,15.10
2018-04-17T20:48:35.724Z,15.10
2018-04-17T20:51:02.132Z,14.90
2018-04-17T20:53:28.574Z,14.90
2018-04-17T20:55:54.996Z,14.90
2018-04-17T20:58:21.415Z,14.80
2018-04-17T21:00:47.801Z,14.90
2018-04-17T21:03:14.191Z,14.90
2018-04-17T21:05:40.612Z,14.70
2018-04-17T21:08:07.749Z,14.80
2018-04-17T21:10:34.910Z,14.60
2018-04-17T21:13:02.051Z,14.30
2018-04-17T21:15:29.227Z,14.50
2018-04-17T21:17:55.602Z,14.50
2018-04-17T21:20:22.016Z,14.40
2018-04-17T21:22:48.429Z,14.40
2018-04-17T21:25:14.843Z,14.40
2018-04-17T21:27:41.274Z,14.40
2018-04-17T21:30:08.413Z,14.40
2018-04-17T21:32:35.521Z,14.30
2018-04-17T21:35:01.917Z,14.20
2018-04-17T21:37:28.273Z,14.30
2018-04-17T21:39:54.755Z,14.20
2018-04-17T21:42:22.615Z,14.00
2018-04-17T21:44:49.253Z,14.00
2018-04-17T21:47:15.650Z,13.80
2018-04-17T21:49:42.035Z,13.90
2018-04-17T21:52:08.417Z,13.80
2018-04-17T21:54:34.788Z,13.90
2018-04-17T21:57:01.177Z,13.80
2018-04-17T21:59:27.583Z,13.70
2018-04-17T22:01:53.944Z,13.60
2018-04-17T22:04:20.357Z,13.60
2018-04-17T22:06:47.466Z,13.60
2018-04-17T22:09:13.874Z,13.60
2018-04-17T22:11:40.292Z,13.50
2018-04-17T22:14:06.682Z,13.40
2018-04-17T22:16:33.790Z,13.30
2018-04-17T22:19:00.164Z,13.30
2018-04-17T22:21:27.320Z,13.40
2018-04-17T22:23:53.696Z,13.40
2018-04-17T22:26:20.219Z,13.30
2018-04-17T22:28:46.584Z,13.10
2018-04-17T22:31:13.584Z,13.10
2018-04-17T22:33:39.974Z,13.10
2018-04-17T22:36:06.323Z,13.10
2018-04-17T22:38:32.716Z,13.00
2018-04-17T22:40:59.128Z,13.00
2018-04-17T22:43:25.519Z,13.00
2018-04-17T22:45:52.682Z,12.60
2018-04-17T22:48:19.085Z,12.60
2018-04-17T22:50:46.955Z,12.70
2018-04-17T22:53:13.382Z,12.70
2018-04-17T22:55:39.794Z,12.70
2018-04-17T22:58:06.219Z,12.70
2018-04-17T23:00:32.659Z,12.70
2018-04-17T23:02:59.047Z,12.60
2018-04-17T23:05:33.207Z,12.50
2018-04-17T23:07:59.604Z,12.50
2018-04-17T23:10:25.973Z,12.40
2018-04-17T23:12:52.350Z,12.40
2018-04-17T23:15:19.466Z,12.40
2018-04-17T23:17:45.857Z,12.40
2018-04-17T23:20:12.241Z,12.40
2018-04-17T23:22:38.653Z,12.30
2018-04-17T23:25:05.035Z,12.30
2018-04-17T23:27:31.389Z,12.20
2018-04-17T23:29:57.777Z,12.20
2018-04-17T23:32:24.145Z,12.20
2018-04-17T23:34:50.594Z,12.10
2018-04-17T23:37:16.953Z,12.00
2018-04-17T23:39:43.335Z,12.00
2018-04-17T23:42:09.738Z,12.00
2018-04-17T23:44:36.131Z,12.00
2018-04-17T23:47:02.519Z,12.00
2018-04-17T23:49:28.879Z,12.00
2018-04-17T23:51:55.933Z,12.00
2018-04-17T23:54:22.321Z,11.80
2018-04-17T23:56:48.727Z,11.80
2018-04-17T23:59:15.071Z,11.90
